METAR Data
IDs: Format: Raw Decoded Include TAF

Data at: 1027 UTC 18 Jan 2022

ENOL 181020Z 24031G41KT 9999 -RA FEW012 SCT020 BKN030 07/05 Q1013 TEMPO 25035G50KT 4000 RADZ BKN008